createdAt,value
2018-05-09T00:00:42.271Z,90.30
2018-05-09T00:03:10.485Z,90.80
2018-05-09T00:05:37.920Z,90.70
2018-05-09T00:08:05.352Z,90.80
2018-05-09T00:10:33.542Z,91.00
2018-05-09T00:13:00.980Z,91.00
2018-05-09T00:15:29.170Z,91.20
2018-05-09T00:17:56.598Z,91.10
2018-05-09T00:23:39.544Z,91.30
2018-05-09T00:26:07.740Z,91.10
2018-05-09T00:28:35.174Z,91.00
2018-05-09T00:31:03.372Z,90.90
2018-05-09T00:33:30.812Z,90.80
2018-05-09T00:35:58.254Z,90.70
2018-05-09T00:38:26.453Z,90.60
2018-05-09T00:40:53.882Z,90.50
2018-05-09T00:43:22.103Z,90.80
2018-05-09T00:45:49.521Z,90.70
2018-05-09T00:48:16.956Z,90.80
2018-05-09T00:50:45.160Z,91.10
2018-05-09T00:53:12.597Z,91.10
2018-05-09T00:55:40.040Z,91.10
2018-05-09T00:58:08.231Z,91.30
2018-05-09T01:00:35.656Z,91.30
2018-05-09T01:03:03.873Z,91.50
2018-05-09T01:05:31.297Z,91.40
2018-05-09T01:07:59.715Z,91.60
2018-05-09T01:10:27.180Z,91.60
2018-05-09T01:12:54.603Z,91.70
2018-05-09T01:15:22.059Z,91.70
2018-05-09T01:17:50.245Z,91.80
2018-05-09T01:20:17.672Z,91.80
2018-05-09T01:22:45.402Z,91.90
2018-05-09T01:25:12.836Z,92.10
2018-05-09T01:27:40.261Z,92.20
2018-05-09T01:30:07.709Z,92.20
2018-05-09T01:32:35.131Z,92.20
2018-05-09T01:35:03.337Z,92.60
2018-05-09T01:37:30.766Z,92.50
2018-05-09T01:39:58.963Z,92.60
2018-05-09T01:42:26.400Z,92.60
2018-05-09T01:44:54.905Z,92.70
2018-05-09T01:47:22.328Z,92.70
2018-05-09T01:49:50.516Z,92.90
2018-05-09T01:52:17.949Z,92.90
2018-05-09T01:54:46.153Z,93.20
2018-05-09T01:57:13.575Z,93.10
2018-05-09T01:59:41.804Z,93.20
2018-05-09T02:02:09.229Z,93.20
2018-05-09T02:04:36.656Z,93.40
2018-05-09T02:07:05.188Z,93.50
2018-05-09T02:09:32.611Z,93.50
2018-05-09T02:12:00.041Z,93.60
2018-05-09T02:14:28.249Z,93.90
2018-05-09T02:16:55.695Z,93.90
2018-05-09T02:19:23.107Z,94.10
2018-05-09T02:21:50.540Z,94.10
2018-05-09T02:24:17.964Z,94.00
2018-05-09T02:26:45.749Z,93.90
2018-05-09T02:29:13.192Z,93.90
2018-05-09T02:31:40.603Z,93.80
2018-05-09T02:34:08.801Z,93.70
2018-05-09T02:36:36.277Z,93.60
2018-05-09T02:39:04.507Z,93.60
2018-05-09T02:41:31.877Z,93.60
2018-05-09T02:43:59.332Z,93.50
2018-05-09T02:46:27.506Z,93.50
2018-05-09T02:48:54.943Z,93.50
2018-05-09T02:51:23.138Z,93.70
2018-05-09T02:53:50.562Z,93.70
2018-05-09T02:56:18.768Z,94.00
2018-05-09T02:58:46.204Z,93.90
2018-05-09T03:01:14.402Z,94.20
2018-05-09T03:03:41.834Z,94.10
2018-05-09T03:06:10.024Z,94.30
2018-05-09T03:08:37.450Z,94.30
2018-05-09T03:11:05.640Z,94.40
2018-05-09T03:13:33.074Z,94.40
2018-05-09T03:16:01.267Z,94.70
2018-05-09T03:18:28.693Z,94.70
2018-05-09T03:20:56.892Z,94.90
2018-05-09T03:23:24.333Z,94.60
2018-05-09T03:25:52.523Z,94.80
2018-05-09T03:28:19.971Z,94.80
2018-05-09T03:30:47.396Z,94.90
2018-05-09T03:33:14.869Z,94.90
2018-05-09T03:35:43.078Z,95.00
2018-05-09T03:38:10.516Z,95.00
2018-05-09T03:40:37.985Z,95.00
2018-05-09T03:43:06.150Z,95.10
2018-05-09T03:45:33.583Z,95.10
2018-05-09T03:48:01.021Z,95.10
2018-05-09T03:50:29.218Z,95.50
2018-05-09T03:52:56.651Z,95.20
2018-05-09T03:55:24.860Z,95.70
2018-05-09T03:57:52.284Z,95.40
2018-05-09T04:00:20.492Z,95.50
2018-05-09T04:02:59.936Z,95.40
2018-05-09T04:05:39.325Z,95.50
2018-05-09T04:08:19.361Z,95.60
2018-05-09T04:10:46.804Z,95.60
2018-05-09T04:13:14.274Z,95.70
2018-05-09T04:15:46.008Z,95.80
2018-05-09T04:18:14.280Z,95.80
2018-05-09T04:20:41.915Z,95.80
2018-05-09T04:23:09.365Z,95.90
2018-05-09T04:25:36.800Z,96.00
2018-05-09T04:28:04.250Z,96.00
2018-05-09T04:30:32.433Z,95.80
2018-05-09T04:32:59.900Z,95.80
2018-05-09T04:35:27.496Z,95.60
2018-05-09T04:37:54.920Z,95.50
2018-05-09T04:40:22.347Z,95.30
2018-05-09T04:42:49.820Z,95.20
2018-05-09T04:45:17.265Z,95.00
2018-05-09T04:47:44.690Z,95.00
2018-05-09T04:50:12.158Z,94.80
2018-05-09T04:52:40.335Z,94.50
2018-05-09T04:55:07.763Z,94.50
2018-05-09T04:57:36.016Z,94.10
2018-05-09T05:00:03.863Z,94.10
2018-05-09T05:02:31.292Z,93.90
2018-05-09T05:04:58.729Z,93.50
2018-05-09T05:07:26.167Z,93.00
2018-05-09T05:09:54.357Z,92.90
2018-05-09T05:12:21.838Z,92.80
2018-05-09T05:14:49.264Z,92.60
2018-05-09T05:17:16.684Z,92.30
2018-05-09T05:19:44.149Z,91.90
2018-05-09T05:22:11.574Z,91.60
2018-05-09T05:24:39.007Z,91.30
2018-05-09T05:27:06.530Z,90.90
2018-05-09T05:29:33.881Z,90.30
2018-05-09T05:32:02.155Z,89.20
2018-05-09T05:34:30.361Z,88.80
2018-05-09T05:36:57.821Z,88.80
2018-05-09T05:39:25.259Z,88.70
2018-05-09T05:41:52.698Z,88.30
2018-05-09T05:44:20.909Z,86.30
2018-05-09T05:46:48.345Z,86.20
2018-05-09T05:49:15.846Z,86.10
2018-05-09T05:51:43.231Z,86.00
2018-05-09T05:54:11.441Z,85.70
2018-05-09T05:56:38.884Z,85.70
2018-05-09T05:59:06.317Z,85.60
2018-05-09T06:01:34.529Z,84.30
2018-05-09T06:04:01.981Z,84.20
2018-05-09T06:06:29.480Z,83.20
2018-05-09T06:08:56.864Z,83.30
2018-05-09T06:11:24.300Z,83.10
2018-05-09T06:13:52.520Z,82.10
2018-05-09T06:16:19.945Z,82.10
2018-05-09T06:18:47.388Z,80.70
2018-05-09T06:21:15.590Z,79.20
2018-05-09T06:23:43.041Z,79.20
2018-05-09T06:26:10.476Z,78.90
2018-05-09T06:28:37.923Z,79.20
2018-05-09T06:31:06.117Z,76.80
2018-05-09T06:33:33.546Z,76.80
2018-05-09T06:36:01.753Z,74.70
2018-05-09T06:38:29.199Z,74.60
2018-05-09T06:40:56.624Z,71.70
2018-05-09T06:43:24.820Z,67.20
2018-05-09T06:45:52.341Z,67.10
2018-05-09T06:48:19.711Z,65.30
2018-05-09T06:50:47.907Z,63.80
2018-05-09T06:53:15.352Z,63.70
2018-05-09T06:58:16.062Z,62.60
2018-05-09T07:00:43.893Z,61.40
2018-05-09T07:03:11.329Z,61.20
2018-05-09T07:05:38.764Z,59.90
2018-05-09T07:08:06.203Z,59.90
2018-05-09T07:10:34.412Z,56.80
2018-05-09T07:13:01.866Z,56.80
2018-05-09T07:15:29.311Z,58.00
2018-05-09T07:17:56.736Z,55.70
2018-05-09T07:20:25.085Z,53.60
2018-05-09T07:22:53.292Z,54.00
2018-05-09T07:25:21.477Z,53.20
2018-05-09T07:27:48.916Z,53.20
2018-05-09T07:30:17.204Z,51.40
2018-05-09T07:32:44.602Z,51.40
2018-05-09T07:35:12.034Z,50.30
2018-05-09T07:37:39.476Z,49.30
2018-05-09T07:40:06.916Z,49.70
2018-05-09T07:42:34.611Z,49.70
2018-05-09T07:45:02.054Z,49.80
2018-05-09T07:47:29.489Z,47.50
2018-05-09T07:49:56.936Z,46.40
2018-05-09T07:52:25.132Z,46.20
2018-05-09T07:54:52.564Z,46.20
2018-05-09T07:57:20.783Z,44.60
2018-05-09T07:59:48.208Z,44.60
2018-05-09T08:02:15.650Z,44.30
2018-05-09T08:04:43.848Z,43.90
2018-05-09T08:07:12.224Z,43.80
2018-05-09T08:09:39.657Z,41.50
2018-05-09T08:12:07.101Z,39.90
2018-05-09T08:14:35.303Z,39.40
2018-05-09T08:17:02.747Z,39.40
2018-05-09T08:19:30.181Z,38.70
2018-05-09T08:21:58.393Z,37.80
2018-05-09T08:24:25.858Z,37.80
2018-05-09T08:26:53.282Z,38.30
2018-05-09T08:29:20.720Z,36.60
2018-05-09T08:31:48.932Z,35.50
2018-05-09T08:34:16.373Z,35.50
2018-05-09T08:36:43.861Z,34.80
2018-05-09T08:39:11.248Z,34.90
2018-05-09T08:41:39.443Z,35.30
2018-05-09T08:44:06.904Z,35.20
2018-05-09T08:46:34.349Z,34.40
2018-05-09T08:49:01.926Z,34.60
2018-05-09T08:51:29.376Z,36.30
2018-05-09T08:53:56.822Z,35.10
2018-05-09T08:56:24.256Z,34.60
2018-05-09T08:58:52.451Z,36.40
2018-05-09T09:01:19.909Z,36.40
2018-05-09T09:03:47.349Z,35.30
2018-05-09T09:06:14.801Z,35.70
2018-05-09T09:08:42.252Z,35.60
2018-05-09T09:11:10.443Z,34.70
2018-05-09T09:13:37.909Z,34.50
2018-05-09T09:16:05.373Z,32.90
2018-05-09T09:18:32.808Z,34.90
2018-05-09T09:21:00.274Z,33.20
2018-05-09T09:23:27.692Z,33.90
2018-05-09T09:25:56.221Z,33.40
2018-05-09T09:28:23.663Z,33.40
2018-05-09T09:30:51.099Z,34.00
2018-05-09T09:33:18.563Z,34.40
2018-05-09T09:35:45.994Z,33.60
2018-05-09T09:38:14.242Z,32.00
2018-05-09T09:43:15.437Z,32.10
2018-05-09T09:45:42.884Z,32.10
2018-05-09T09:48:10.312Z,30.30
2018-05-09T09:50:37.794Z,30.90
2018-05-09T09:53:05.192Z,30.40
2018-05-09T09:55:32.640Z,30.70
2018-05-09T09:58:00.078Z,30.80
2018-05-09T10:00:27.532Z,31.50
2018-05-09T10:02:54.969Z,31.90
2018-05-09T10:05:22.411Z,31.80
2018-05-09T10:07:50.624Z,32.50
2018-05-09T10:10:18.065Z,32.50
2018-05-09T10:12:45.494Z,32.80
2018-05-09T10:15:13.701Z,31.80
2018-05-09T10:17:41.167Z,31.80
2018-05-09T10:20:08.612Z,30.60
2018-05-09T10:22:36.044Z,30.60
2018-05-09T10:25:03.492Z,31.70
2018-05-09T10:29:33.156Z,30.30
2018-05-09T10:32:00.592Z,31.50
2018-05-09T10:34:28.316Z,30.50
2018-05-09T10:36:56.536Z,31.00
2018-05-09T10:39:24.737Z,31.40
2018-05-09T10:41:52.165Z,30.80
2018-05-09T10:44:19.617Z,28.70
2018-05-09T10:46:47.047Z,28.90
2018-05-09T10:49:14.476Z,28.80
2018-05-09T10:51:42.704Z,27.80
2018-05-09T10:54:10.130Z,27.70
2018-05-09T10:56:37.618Z,27.80
2018-05-09T10:59:05.765Z,27.20
2018-05-09T11:01:33.213Z,27.10
2018-05-09T11:04:00.689Z,27.50
2018-05-09T11:06:28.130Z,28.20
2018-05-09T11:08:55.569Z,28.40
2018-05-09T11:11:23.020Z,28.50
2018-05-09T11:13:50.448Z,28.10
2018-05-09T11:16:18.668Z,28.00
2018-05-09T11:18:46.103Z,27.90
2018-05-09T11:21:13.547Z,28.20
2018-05-09T11:23:41.745Z,27.70
2018-05-09T11:26:09.189Z,27.70
2018-05-09T11:28:36.611Z,26.60
2018-05-09T11:31:04.824Z,27.60
2018-05-09T11:33:32.272Z,27.50
2018-05-09T11:35:59.726Z,26.70
2018-05-09T11:38:27.148Z,27.40
2018-05-09T11:40:55.365Z,28.60
2018-05-09T11:45:36.819Z,26.90
2018-05-09T11:48:05.039Z,27.30
2018-05-09T11:50:32.465Z,27.20
2018-05-09T11:52:59.917Z,26.70
2018-05-09T11:55:28.114Z,26.40
2018-05-09T11:57:55.557Z,26.50
2018-05-09T12:00:22.984Z,26.20
2018-05-09T12:02:51.195Z,26.30
2018-05-09T12:07:48.856Z,26.20
2018-05-09T12:10:16.291Z,23.80
2018-05-09T12:12:44.492Z,25.60
2018-05-09T12:15:11.920Z,25.60
2018-05-09T12:17:40.232Z,26.30
2018-05-09T12:20:07.669Z,26.30
2018-05-09T12:22:35.134Z,26.30
2018-05-09T12:25:02.804Z,26.30
2018-05-09T12:27:30.249Z,26.50
2018-05-09T12:29:57.691Z,27.40
2018-05-09T12:32:25.236Z,25.00
2018-05-09T12:34:52.667Z,25.40
2018-05-09T12:37:20.102Z,25.50
2018-05-09T12:39:47.542Z,26.20
2018-05-09T12:42:15.400Z,25.20
2018-05-09T12:44:42.839Z,24.90
2018-05-09T12:47:10.279Z,26.10
2018-05-09T12:49:37.717Z,25.70
2018-05-09T12:52:05.931Z,25.80
2018-05-09T12:54:33.457Z,25.80
2018-05-09T12:57:00.803Z,25.70
2018-05-09T12:59:28.284Z,25.60
2018-05-09T13:01:55.720Z,26.90
2018-05-09T13:04:23.168Z,25.10
2018-05-09T13:06:51.382Z,25.90
2018-05-09T13:09:19.103Z,25.90
2018-05-09T13:11:46.487Z,25.80
2018-05-09T13:14:13.924Z,26.00
2018-05-09T13:16:41.371Z,25.80
2018-05-09T13:19:08.817Z,25.70
2018-05-09T13:21:37.020Z,25.60
2018-05-09T13:25:28.737Z,25.60
2018-05-09T13:27:56.180Z,26.10
2018-05-09T13:30:23.641Z,26.50
2018-05-09T13:32:51.088Z,25.50
2018-05-09T13:35:18.525Z,25.00
2018-05-09T13:37:46.733Z,24.30
2018-05-09T13:40:14.245Z,24.20
2018-05-09T13:42:41.611Z,24.30
2018-05-09T13:45:09.814Z,24.70
2018-05-09T13:47:37.280Z,24.60
2018-05-09T13:50:04.707Z,24.40
2018-05-09T13:52:32.152Z,23.50
2018-05-09T13:55:00.389Z,24.30
2018-05-09T13:57:27.824Z,24.30
2018-05-09T14:00:34.771Z,24.40
2018-05-09T14:03:02.224Z,24.40
2018-05-09T14:05:29.683Z,23.60
2018-05-09T14:07:57.137Z,23.80
2018-05-09T14:10:24.569Z,23.00
2018-05-09T14:12:53.085Z,22.70
2018-05-09T14:15:20.520Z,22.70
2018-05-09T14:17:48.821Z,23.40
2018-05-09T14:20:16.272Z,23.40
2018-05-09T14:22:43.695Z,23.60
2018-05-09T21:51:33.409Z,79.10
2018-05-09T21:54:01.603Z,78.50
2018-05-09T21:56:29.044Z,78.40
2018-05-09T21:58:56.480Z,79.80
2018-05-09T22:01:23.926Z,79.90
2018-05-09T22:03:51.373Z,79.60
2018-05-09T22:06:18.809Z,80.90
2018-05-09T22:08:46.248Z,82.90
2018-05-09T22:11:14.468Z,83.50
2018-05-09T22:13:41.895Z,83.40
2018-05-09T22:16:09.327Z,83.80
2018-05-09T22:18:37.536Z,85.40
2018-05-09T22:21:04.974Z,85.40
2018-05-09T22:23:32.446Z,86.00
2018-05-09T22:25:59.869Z,85.30
2018-05-09T22:28:28.072Z,84.70
2018-05-09T22:30:55.524Z,84.60
2018-05-09T22:33:23.036Z,85.40
2018-05-09T22:35:50.514Z,84.20
2018-05-09T22:38:17.962Z,83.50
2018-05-09T22:40:46.167Z,82.40
2018-05-09T22:43:13.601Z,82.40
2018-05-09T22:45:41.031Z,82.40
2018-05-09T22:48:09.244Z,82.80
2018-05-09T22:50:36.677Z,82.70
2018-05-09T22:53:04.891Z,83.10
2018-05-09T22:55:32.338Z,82.90
2018-05-09T22:57:59.803Z,82.90
2018-05-09T23:00:27.280Z,82.80
2018-05-09T23:02:54.737Z,83.50
2018-05-09T23:05:22.194Z,83.80
2018-05-09T23:07:49.647Z,84.10
2018-05-09T23:10:17.178Z,84.40
2018-05-09T23:12:44.537Z,84.20
2018-05-09T23:15:11.970Z,83.90
2018-05-09T23:17:39.745Z,83.50
2018-05-09T23:20:07.173Z,83.50
2018-05-09T23:22:34.609Z,83.60
2018-05-09T23:25:02.824Z,84.00
2018-05-09T23:27:30.261Z,84.00
2018-05-09T23:29:57.704Z,83.70
2018-05-09T23:32:25.354Z,83.70
2018-05-09T23:34:52.797Z,84.00
2018-05-09T23:37:21.003Z,84.80
2018-05-09T23:39:48.452Z,84.80
2018-05-09T23:42:15.901Z,85.40
2018-05-09T23:44:43.340Z,86.10
2018-05-09T23:47:11.542Z,86.50
2018-05-09T23:49:38.989Z,86.50
2018-05-09T23:52:06.552Z,86.80
2018-05-09T23:54:33.918Z,87.30
2018-05-09T23:57:01.361Z,87.30
2018-05-09T23:59:28.812Z,87.00
